METAR Data
IDs: Format: Raw Decoded Include TAF

Data at: 1514 UTC 10 Aug 2022

KBLU 101452Z AUTO VRB03KT 10SM CLR 17/07 A3024 RMK AO2 SLP160 T01720067 53010
KBLU 101352Z AUTO 13003KT 10SM CLR 16/06 A3023 RMK AO2 SLP155 T01610056
KBLU 101252Z AUTO 13003KT 10SM CLR 16/06 A3021 RMK AO2 SLP144 T01610056
KBLU 101152Z AUTO 14004KT 10SM CLR 17/07 A3020 RMK AO2 SLP142 T01670067 10183 20161 53001
KBLU 101052Z AUTO 14005KT 10SM CLR 17/07 A3020 RMK AO2 SLP140 T01670067
KBLU 100952Z AUTO 14004KT 10SM CLR 17/07 A3020 RMK AO2 SLP137 T01670067
KBLU 100852Z AUTO 14004KT 10SM CLR 17/07 A3020 RMK AO2 SLP137 T01670067 56001
KBLU 100752Z AUTO 13003KT 10SM CLR 17/07 A3020 RMK AO2 SLP138 T01720072 402280156
KBLU 100652Z AUTO 13004KT 10SM CLR 17/07 A3020 RMK AO2 SLP138 T01720072
KBLU 100552Z AUTO 12003KT 10SM CLR 16/08 A3021 RMK AO2 SLP142 T01610078 10222 20156 53004
KBLU 100452Z AUTO 13003KT 10SM SCT075 17/08 A3020 RMK AO2 SLP139 T01670083
KBLU 100352Z AUTO VRB03KT 10SM BKN075 17/08 A3019 RMK AO2 SLP134 T01720083
KBLU 100252Z AUTO 15003KT 10SM OVC070 18/09 A3019 RMK AO2 SLP134 T01830089 53003
KBLU 100152Z AUTO 19003KT 10SM FEW060 BKN080 BKN100 19/09 A3018 RMK AO2 SLP130 T01940089
KBLU 100052Z AUTO 21008KT 10SM SCT080 BKN100 21/08 A3018 RMK AO2 SLP127 T02110083
KBLU 092352Z AUTO 23006KT 10SM SCT065 BKN110 21/09 A3018 RMK AO2 SLP128 T02060094 10228 20206 58004
KBLU 092252Z AUTO 00000KT 10SM BKN065 BKN100 21/11 A3019 RMK AO2 SLP130 T02060106
KBLU 092152Z AUTO 19007KT 10SM OVC060 22/10 A3019 RMK AO2 SLP129 T02170100
KBLU 092052Z AUTO VRB06G14KT 10SM OVC060 22/09 A3019 RMK AO2 SLP127 T02220094 58001
KBLU 091952Z AUTO 20007KT 10SM OVC060 22/11 A3020 RMK AO2 SLP129 T02170106
KBLU 091852Z AUTO 17008KT 130V200 10SM SCT110 22/09 A3020 RMK AO2 SLP129 T02170094
KBLU 091752Z AUTO 18009KT 10SM FEW060 BKN080 OVC110 22/10 A3020 RMK AO2 SLP128 T02170100 10222 20183 53004
KBLU 091652Z AUTO 18008KT 10SM FEW065 BKN100 22/10 A3019 RMK AO2 SLP125 T02220100
KBLU 091552Z AUTO VRB03KT 10SM SCT070 BKN110 22/10 A3019 RMK AO2 SLP128 T02170100
KBLU 091452Z AUTO VRB03KT 10SM BKN120 20/09 A3018 RMK AO2 SLP129 T02000094 53006
KBLU 091352Z AUTO 13003KT 10SM SCT100 SCT120 19/09 A3018 RMK AO2 SLP120 T01890089
KBLU 091252Z AUTO 00000KT 10SM CLR 19/08 A3017 RMK AO2 SLP115 T01890083
KBLU 091152Z AUTO 13003KT 10SM CLR 19/08 A3016 RMK AO2 SLP113 T01890083 10211 20189 56002
KBLU 091052Z AUTO 00000KT 10SM SCT120 19/08 A3016 RMK AO2 SLP110 T01890078
KBLU 090952Z AUTO 00000KT 10SM OVC100 19/08 A3017 RMK AO2 SLP111 T01940078
KBLU 090852Z AUTO 00000KT 10SM SCT100 20/08 A3017 RMK AO2 SLP110 T02000078 58005
KBLU 090752Z AUTO 00000KT 10SM CLR 21/08 A3019 RMK AO2 SLP115 T02060078 402670189
KBLU 090652Z AUTO 00000KT 10SM CLR 21/08 A3019 RMK AO2 SLP116 T02060078
KBLU 090552Z AUTO 00000KT 10SM CLR 21/08 A3019 RMK AO2 SLP118 T02060078 10250 20189 58001
KBLU 090452Z AUTO 06003KT 10SM FEW120 19/08 A3020 RMK AO2 SLP128 T01940078
KBLU 090352Z AUTO 00000KT 10SM CLR 19/07 A3019 RMK AO2 SLP129 T01890072